Time;durP1;ratioP1;P1;durP2;ratioP2;P2;SDS_P1;SDS_P2;PMS_P1;PMS_P2;Temp;Humidity;BMP_temperature;BMP_pressure;BME280_temperature;BME280_humidity;BME280_pressure;Samples;Min_cycle;Max_cycle;Signal;HPM_P1;HPM_P2
2021/11/26 00:01:27;;;;;;;17.38;6.93;;;3.20;99.90;;;;;;5041469;28;20070;-63
2021/11/26 00:03:53;;;;;;;22.67;7.55;;;3.20;99.90;;;;;;5044195;28;20171;-62
2021/11/26 00:06:19;;;;;;;21.08;6.78;;;3.20;99.90;;;;;;5046196;28;20084;-63
2021/11/26 00:08:44;;;;;;;28.27;7.70;;;3.30;99.90;;;;;;5045700;28;20037;-63
2021/11/26 00:11:10;;;;;;;23.77;7.50;;;3.20;99.90;;;;;;5044905;28;20029;-62
2021/11/26 00:13:40;;;;;;;28.75;7.03;;;3.20;99.90;;;;;;5044380;28;20045;-62
2021/11/26 00:16:09;;;;;;;29.83;7.55;;;3.20;99.90;;;;;;5042893;28;20041;-63
2021/11/26 00:18:42;;;;;;;26.55;7.93;;;3.10;99.90;;;;;;5029893;28;20044;-62
2021/11/26 00:21:08;;;;;;;33.10;7.65;;;3.10;99.90;;;;;;5027955;28;20041;-63
2021/11/26 00:23:34;;;;;;;22.00;6.88;;;3.20;99.90;;;;;;5024371;28;20052;-62
2021/11/26 00:26:00;;;;;;;23.92;7.13;;;3.10;99.90;;;;;;5028377;28;20041;-62
2021/11/26 00:28:25;;;;;;;22.42;7.95;;;3.10;99.90;;;;;;5029367;28;20052;-63
2021/11/26 00:30:53;;;;;;;22.02;7.50;;;3.10;99.90;;;;;;5029097;28;20497;-62
2021/11/26 00:33:20;;;;;;;25.70;7.30;;;3.10;99.90;;;;;;5027197;28;20468;-63
2021/11/26 00:35:46;;;;;;;21.40;7.25;;;3.10;99.90;;;;;;5028993;28;20051;-62
2021/11/26 00:38:11;;;;;;;29.13;8.57;;;3.10;99.90;;;;;;5029300;28;20037;-62
2021/11/26 00:40:37;;;;;;;25.08;8.73;;;3.00;99.90;;;;;;5025272;28;21067;-62
2021/11/26 00:43:03;;;;;;;34.42;9.27;;;3.00;99.90;;;;;;5029881;28;20041;-62
2021/11/26 00:45:29;;;;;;;19.33;7.43;;;3.00;99.90;;;;;;5028142;28;20083;-62
2021/11/26 00:47:54;;;;;;;21.55;8.40;;;3.00;99.90;;;;;;5029417;28;20076;-63
2021/11/26 00:50:20;;;;;;;34.22;8.98;;;3.00;99.90;;;;;;5026403;28;20044;-62
2021/11/26 00:52:46;;;;;;;25.05;10.02;;;2.90;99.90;;;;;;5025453;28;20041;-62
2021/11/26 00:55:12;;;;;;;27.75;8.57;;;2.90;99.90;;;;;;5024959;28;20217;-63
2021/11/26 00:57:39;;;;;;;24.25;7.65;;;2.80;99.90;;;;;;5025023;28;20084;-63
2021/11/26 01:00:08;;;;;;;33.17;8.50;;;2.80;99.90;;;;;;5027445;28;20041;-63
2021/11/26 01:02:35;;;;;;;27.73;7.63;;;2.80;99.90;;;;;;5024438;28;20500;-62
2021/11/26 01:05:00;;;;;;;25.40;8.55;;;2.90;99.90;;;;;;5028440;28;20464;-62
2021/11/26 01:07:26;;;;;;;24.40;7.82;;;2.90;99.90;;;;;;5028649;28;20397;-62
2021/11/26 01:09:52;;;;;;;29.70;9.55;;;2.90;99.90;;;;;;5028484;28;20473;-62
2021/11/26 01:12:18;;;;;;;26.63;8.18;;;2.90;99.90;;;;;;5024778;28;20424;-62
2021/11/26 01:14:44;;;;;;;32.72;8.70;;;2.90;99.90;;;;;;5024941;28;20045;-63
2021/11/26 01:17:10;;;;;;;34.78;9.93;;;2.90;99.90;;;;;;5025775;28;20042;-63
2021/11/26 01:19:35;;;;;;;27.17;8.05;;;2.80;99.90;;;;;;5028356;28;20069;-62
2021/11/26 01:22:01;;;;;;;27.10;8.57;;;2.90;99.90;;;;;;5024127;28;20397;-62
2021/11/26 01:24:27;;;;;;;36.20;12.40;;;2.90;99.90;;;;;;5024669;28;20030;-62
2021/11/26 01:26:52;;;;;;;35.05;10.60;;;2.90;99.90;;;;;;5027646;28;20033;-62
2021/11/26 01:29:18;;;;;;;31.80;10.15;;;2.70;99.90;;;;;;5026953;28;20530;-63
2021/11/26 01:31:45;;;;;;;28.77;9.38;;;2.70;99.90;;;;;;5021611;28;20053;-63
2021/11/26 01:34:12;;;;;;;21.15;7.82;;;2.60;99.90;;;;;;5028479;28;20045;-62
2021/11/26 01:36:37;;;;;;;28.00;8.90;;;2.60;99.90;;;;;;5028090;28;20046;-63
2021/11/26 01:39:04;;;;;;;27.65;8.00;;;2.60;99.90;;;;;;5028619;28;20037;-62
2021/11/26 01:41:30;;;;;;;25.85;9.18;;;2.60;99.90;;;;;;5026373;28;20049;-63
2021/11/26 01:43:56;;;;;;;29.63;8.75;;;2.60;99.90;;;;;;5024795;28;20034;-62
2021/11/26 01:46:22;;;;;;;34.47;9.05;;;2.70;99.90;;;;;;5024823;28;20053;-62
2021/11/26 01:48:48;;;;;;;29.30;8.32;;;2.70;99.90;;;;;;5024482;28;20061;-62
2021/11/26 01:51:13;;;;;;;28.83;9.10;;;2.70;99.90;;;;;;5026390;28;20041;-60
2021/11/26 01:53:39;;;;;;;38.85;10.82;;;2.70;99.90;;;;;;5027511;28;20393;-62
2021/11/26 01:56:05;;;;;;;26.42;8.73;;;2.70;99.90;;;;;;5028016;28;20041;-63
2021/11/26 01:58:32;;;;;;;29.08;8.00;;;2.70;99.90;;;;;;5027988;28;20580;-62
2021/11/26 02:01:01;;;;;;;26.15;8.93;;;2.80;99.90;;;;;;5026991;28;20072;-63
2021/11/26 02:03:27;;;;;;;30.92;9.35;;;2.80;99.90;;;;;;5025633;28;20049;-62
2021/11/26 02:05:52;;;;;;;36.97;9.02;;;2.80;99.90;;;;;;5028480;28;20034;-62
2021/11/26 02:08:18;;;;;;;24.45;9.20;;;2.80;99.90;;;;;;5027081;28;20037;-63
2021/11/26 02:10:44;;;;;;;26.13;9.52;;;2.80;99.90;;;;;;5027586;28;20025;-62
2021/11/26 02:13:10;;;;;;;24.13;7.97;;;2.80;99.90;;;;;;5028193;28;20047;-63
2021/11/26 02:15:41;;;;;;;28.67;8.57;;;2.80;99.90;;;;;;5031320;28;20041;-63
2021/11/26 02:18:08;;;;;;;27.85;8.63;;;2.80;99.90;;;;;;5028807;28;20127;-62
2021/11/26 02:20:33;;;;;;;24.60;9.45;;;2.70;99.90;;;;;;5025534;28;20071;-62
2021/11/26 02:23:00;;;;;;;24.98;8.82;;;2.80;99.90;;;;;;5023697;28;20124;-63
2021/11/26 02:25:27;;;;;;;32.45;8.75;;;2.80;99.90;;;;;;5025745;28;20057;-62
2021/11/26 02:27:58;;;;;;;27.52;9.73;;;2.80;99.90;;;;;;5027710;28;20037;-62
2021/11/26 02:30:24;;;;;;;26.60;9.27;;;2.80;99.90;;;;;;5023163;28;20077;-62
2021/11/26 02:32:56;;;;;;;29.58;10.00;;;2.70;99.90;;;;;;5026972;28;20057;-62
2021/11/26 02:35:23;;;;;;;32.90;9.32;;;2.70;99.90;;;;;;5027232;28;20120;-62
2021/11/26 02:37:50;;;;;;;31.10;10.23;;;2.70;99.90;;;;;;5024591;28;20049;-59
2021/11/26 02:40:18;;;;;;;26.88;8.30;;;2.60;99.90;;;;;;5024293;28;20124;-62
2021/11/26 02:42:45;;;;;;;32.17;9.35;;;2.70;99.90;;;;;;5024837;28;20120;-63
2021/11/26 02:45:13;;;;;;;22.25;8.95;;;2.60;99.90;;;;;;5024871;28;20512;-63
2021/11/26 02:47:40;;;;;;;26.15;9.35;;;2.60;99.90;;;;;;5027461;28;20059;-62
2021/11/26 02:50:09;;;;;;;28.52;8.70;;;2.50;99.90;;;;;;5023063;28;20475;-62
2021/11/26 02:52:36;;;;;;;32.45;9.35;;;2.50;99.90;;;;;;5022603;28;20084;-60
2021/11/26 02:55:03;;;;;;;27.92;9.13;;;2.40;99.90;;;;;;5024731;28;20108;-63
2021/11/26 02:57:29;;;;;;;25.63;8.15;;;2.40;99.90;;;;;;5027440;28;20136;-62
2021/11/26 02:59:55;;;;;;;30.75;9.18;;;2.50;99.90;;;;;;5027333;28;20045;-63
2021/11/26 03:02:20;;;;;;;28.90;8.25;;;2.50;99.90;;;;;;5025263;28;20037;-62
2021/11/26 03:04:46;;;;;;;26.13;9.40;;;2.60;99.90;;;;;;5028736;28;20116;-62
2021/11/26 03:07:11;;;;;;;24.00;7.85;;;2.60;99.90;;;;;;5028195;28;20041;-62
2021/11/26 03:09:38;;;;;;;24.63;8.85;;;2.60;99.90;;;;;;5027820;28;20045;-63
2021/11/26 03:12:06;;;;;;;27.73;8.57;;;2.60;99.90;;;;;;5028947;28;20045;-62
2021/11/26 03:14:32;;;;;;;22.63;8.65;;;2.60;99.90;;;;;;5024794;28;20049;-62
2021/11/26 03:16:58;;;;;;;18.13;7.50;;;2.60;99.90;;;;;;5027446;28;20049;-61
2021/11/26 03:19:23;;;;;;;20.42;7.45;;;2.60;99.90;;;;;;5028916;28;20037;-63
2021/11/26 03:21:49;;;;;;;24.15;7.72;;;2.60;99.90;;;;;;5025544;28;20269;-63
2021/11/26 03:24:15;;;;;;;23.83;6.90;;;2.50;99.90;;;;;;5028223;28;20052;-61
2021/11/26 03:26:40;;;;;;;17.40;7.03;;;2.60;99.90;;;;;;5023833;28;20048;-62
2021/11/26 03:29:06;;;;;;;17.75;6.82;;;2.60;99.90;;;;;;5024439;28;20041;-62
2021/11/26 03:31:33;;;;;;;20.50;7.60;;;2.50;99.90;;;;;;5023825;28;20128;-61
2021/11/26 03:33:59;;;;;;;15.82;7.00;;;2.50;99.90;;;;;;5027669;28;20087;-62
2021/11/26 03:36:24;;;;;;;19.15;6.85;;;2.50;99.90;;;;;;5027501;28;20046;-62
2021/11/26 03:38:50;;;;;;;19.52;6.82;;;2.50;99.90;;;;;;5028421;28;20036;-62
2021/11/26 03:41:15;;;;;;;27.27;7.35;;;2.40;99.90;;;;;;5021276;28;20045;-62
2021/11/26 03:43:41;;;;;;;20.25;7.50;;;2.40;99.90;;;;;;5025781;28;20050;-61
2021/11/26 03:46:07;;;;;;;19.77;6.65;;;2.40;99.90;;;;;;5027264;28;20045;-62
2021/11/26 03:48:33;;;;;;;30.40;9.00;;;2.40;99.90;;;;;;5027611;28;20073;-62
2021/11/26 03:50:58;;;;;;;23.67;8.95;;;2.40;99.90;;;;;;5026667;28;20060;-59
2021/11/26 03:53:24;;;;;;;29.05;9.13;;;2.40;99.90;;;;;;5030372;28;20119;-62
2021/11/26 03:55:50;;;;;;;31.42;9.68;;;2.40;99.90;;;;;;5032908;28;20514;-61
2021/11/26 03:58:15;;;;;;;23.52;7.72;;;2.40;99.90;;;;;;5031961;28;20038;-63
2021/11/26 04:00:41;;;;;;;21.52;9.75;;;2.30;99.90;;;;;;5030320;28;20052;-62
2021/11/26 04:03:07;;;;;;;26.80;8.75;;;2.30;99.90;;;;;;5029882;28;20053;-61
2021/11/26 04:05:32;;;;;;;36.13;9.50;;;2.40;99.90;;;;;;5032757;28;20037;-62
2021/11/26 04:07:59;;;;;;;26.23;8.88;;;2.30;99.90;;;;;;5030970;28;20604;-63
2021/11/26 04:10:25;;;;;;;27.98;9.73;;;2.30;99.90;;;;;;5031377;28;20048;-61
2021/11/26 04:12:52;;;;;;;28.45;10.65;;;2.30;99.90;;;;;;5029866;28;20045;-62
2021/11/26 04:15:19;;;;;;;21.33;8.85;;;2.30;99.90;;;;;;5033464;28;20044;-62
2021/11/26 04:17:47;;;;;;;21.27;8.60;;;2.30;99.90;;;;;;5032064;28;20068;-63
2021/11/26 04:20:13;;;;;;;27.55;9.38;;;2.40;99.90;;;;;;5032010;28;20080;-62
2021/11/26 04:22:39;;;;;;;24.63;10.25;;;2.40;99.90;;;;;;5032517;28;20057;-61
2021/11/26 04:25:08;;;;;;;27.17;9.98;;;2.40;99.90;;;;;;5030701;28;20045;-63
2021/11/26 04:27:33;;;;;;;26.45;8.95;;;2.40;99.90;;;;;;5028070;28;20052;-62
2021/11/26 04:29:59;;;;;;;29.90;9.80;;;2.40;99.90;;;;;;5027731;28;20096;-62
2021/11/26 04:32:26;;;;;;;28.67;10.27;;;2.40;99.90;;;;;;5029070;28;20064;-62
2021/11/26 04:34:52;;;;;;;33.65;9.80;;;2.40;99.90;;;;;;5029409;28;20099;-63
2021/11/26 04:37:18;;;;;;;31.88;10.77;;;2.40;99.90;;;;;;5028829;28;20041;-63
2021/11/26 04:39:43;;;;;;;24.40;10.07;;;2.40;99.90;;;;;;5026720;28;20112;-62
2021/11/26 04:42:10;;;;;;;30.85;9.30;;;2.40;99.90;;;;;;5029594;28;20048;-63
2021/11/26 04:44:35;;;;;;;29.17;9.82;;;2.40;99.90;;;;;;5029198;28;20492;-63
2021/11/26 04:47:01;;;;;;;25.88;10.07;;;2.40;99.90;;;;;;5030868;28;20103;-62
2021/11/26 04:49:26;;;;;;;32.10;11.75;;;2.30;99.90;;;;;;5029908;28;20042;-62
2021/11/26 04:51:52;;;;;;;30.75;11.15;;;2.30;99.90;;;;;;5026050;28;20041;-61
2021/11/26 04:54:18;;;;;;;23.92;9.68;;;2.30;99.90;;;;;;5028230;28;20095;-62
2021/11/26 04:56:43;;;;;;;27.10;10.35;;;2.30;99.90;;;;;;5025266;28;20598;-60
2021/11/26 04:59:09;;;;;;;28.30;9.82;;;2.30;99.90;;;;;;5031704;28;20048;-63
2021/11/26 05:01:34;;;;;;;23.45;8.90;;;2.40;99.90;;;;;;5027941;28;20049;-61
2021/11/26 05:04:00;;;;;;;23.83;9.18;;;2.30;99.90;;;;;;5028674;28;20087;-62
2021/11/26 05:06:25;;;;;;;28.88;10.27;;;2.40;99.90;;;;;;5030794;28;20520;-62
2021/11/26 05:08:52;;;;;;;22.55;8.85;;;2.40;99.90;;;;;;5031627;28;20040;-62
2021/11/26 05:11:17;;;;;;;32.58;10.70;;;2.40;99.90;;;;;;5028963;28;20041;-61
2021/11/26 05:13:44;;;;;;;20.58;9.82;;;2.40;99.90;;;;;;5028214;28;20128;-62
2021/11/26 05:16:13;;;;;;;25.85;9.40;;;2.40;99.90;;;;;;5026955;28;20095;-61
2021/11/26 05:18:43;;;;;;;28.52;10.63;;;2.30;99.90;;;;;;5029055;28;20045;-62
2021/11/26 05:21:09;;;;;;;24.52;8.98;;;2.30;99.90;;;;;;5029431;28;20048;-62
2021/11/26 05:23:35;;;;;;;23.13;9.98;;;2.20;99.90;;;;;;5029048;28;20120;-62
2021/11/26 05:26:00;;;;;;;21.17;9.07;;;2.10;99.90;;;;;;5030307;28;20179;-61
2021/11/26 05:28:26;;;;;;;23.73;9.13;;;2.10;99.90;;;;;;5030670;28;20073;-61
2021/11/26 05:30:52;;;;;;;27.13;11.10;;;2.10;99.90;;;;;;5026687;28;20037;-61
2021/11/26 05:33:18;;;;;;;41.95;15.68;;;2.00;99.90;;;;;;5030320;28;20048;-62
2021/11/26 05:35:44;;;;;;;36.10;13.18;;;2.00;99.90;;;;;;5028590;28;20037;-62
2021/11/26 05:38:10;;;;;;;61.97;25.13;;;2.00;99.90;;;;;;5029651;28;20041;-63
2021/11/26 05:40:35;;;;;;;31.67;11.73;;;2.00;99.90;;;;;;5029021;28;20041;-65
2021/11/26 05:43:02;;;;;;;31.00;10.35;;;2.00;99.90;;;;;;5029868;28;20033;-62
2021/11/26 05:45:28;;;;;;;23.50;10.00;;;2.00;99.90;;;;;;5027977;28;20041;-62
2021/11/26 05:47:53;;;;;;;21.40;9.18;;;2.00;99.90;;;;;;5024495;28;20041;-62
2021/11/26 05:50:21;;;;;;;25.48;11.98;;;2.10;99.90;;;;;;5024647;28;20042;-60
2021/11/26 05:52:46;;;;;;;20.95;8.90;;;2.10;99.90;;;;;;5025931;28;20125;-61
2021/11/26 05:55:20;;;;;;;21.05;8.38;;;2.10;99.90;;;;;;5026300;28;20045;-62
2021/11/26 05:57:46;;;;;;;20.95;7.65;;;2.20;99.90;;;;;;5028772;28;20044;-62
2021/11/26 06:00:13;;;;;;;23.60;8.77;;;2.20;99.90;;;;;;5027187;28;20033;-62
2021/11/26 06:02:39;;;;;;;21.77;8.85;;;2.20;99.90;;;;;;5024791;28;20045;-62
2021/11/26 06:05:05;;;;;;;18.33;7.63;;;2.30;99.90;;;;;;5024956;28;20045;-62
2021/11/26 06:07:32;;;;;;;18.90;8.48;;;2.20;99.90;;;;;;5027233;28;20489;-61
2021/11/26 06:09:58;;;;;;;19.60;8.40;;;2.20;99.90;;;;;;5029829;28;20111;-61
2021/11/26 06:12:24;;;;;;;18.05;7.88;;;2.30;99.90;;;;;;5026984;28;20497;-62
2021/11/26 06:14:53;;;;;;;18.00;7.80;;;2.30;99.90;;;;;;5027615;28;20033;-61
2021/11/26 06:17:19;;;;;;;19.15;7.75;;;2.30;99.90;;;;;;5025335;28;20041;-62
2021/11/26 06:19:45;;;;;;;17.15;6.93;;;2.30;99.90;;;;;;5026467;28;20041;-62
2021/11/26 06:22:11;;;;;;;17.27;6.90;;;2.30;99.90;;;;;;5025699;28;20084;-62
2021/11/26 06:24:36;;;;;;;23.15;8.85;;;2.40;99.90;;;;;;5023681;28;20119;-62
2021/11/26 06:27:02;;;;;;;22.02;7.90;;;2.40;99.90;;;;;;5026535;28;20042;-62
2021/11/26 06:29:28;;;;;;;24.23;9.60;;;2.40;99.90;;;;;;5027429;28;20814;-62
2021/11/26 06:31:53;;;;;;;21.13;8.65;;;2.40;99.90;;;;;;5026368;28;20048;-62
2021/11/26 06:34:19;;;;;;;23.30;9.20;;;2.40;99.90;;;;;;5028051;28;20037;-62
2021/11/26 06:36:45;;;;;;;21.48;9.35;;;2.40;99.90;;;;;;5028892;28;20045;-58
2021/11/26 06:39:10;;;;;;;24.73;8.57;;;2.40;99.90;;;;;;5027140;28;20107;-62
2021/11/26 06:41:36;;;;;;;28.52;8.77;;;2.50;99.90;;;;;;5022463;28;20046;-61
2021/11/26 06:44:02;;;;;;;21.42;8.75;;;2.50;99.90;;;;;;5025484;28;20621;-62
2021/11/26 06:46:27;;;;;;;18.77;8.40;;;2.50;99.90;;;;;;5027064;28;20042;-63
2021/11/26 06:48:53;;;;;;;20.50;8.68;;;2.50;99.90;;;;;;5027292;28;20047;-62
2021/11/26 06:51:19;;;;;;;20.05;8.07;;;2.50;99.90;;;;;;5024361;28;20112;-62
2021/11/26 06:53:44;;;;;;;25.35;8.30;;;2.50;99.90;;;;;;5025077;28;20041;-61
2021/11/26 06:56:10;;;;;;;16.42;8.20;;;2.40;99.90;;;;;;5025647;28;20037;-61
2021/11/26 06:58:36;;;;;;;21.52;9.25;;;2.50;99.90;;;;;;5027339;28;20492;-62
2021/11/26 07:01:01;;;;;;;20.80;8.43;;;2.60;99.90;;;;;;5020348;28;20025;-63
2021/11/26 07:03:27;;;;;;;22.00;8.98;;;2.60;99.90;;;;;;5024507;28;20121;-62
2021/11/26 07:05:53;;;;;;;20.60;8.43;;;2.50;99.90;;;;;;5024138;28;20045;-61
2021/11/26 07:08:19;;;;;;;21.58;9.65;;;2.50;99.90;;;;;;5030482;28;20559;-60
2021/11/26 07:10:46;;;;;;;19.02;8.25;;;2.50;99.90;;;;;;5029538;28;20045;-62
2021/11/26 07:13:12;;;;;;;19.75;8.15;;;2.50;99.90;;;;;;5011560;28;20045;-62
2021/11/26 07:15:38;;;;;;;24.45;8.32;;;2.50;99.90;;;;;;5028429;28;20055;-62
2021/11/26 07:18:04;;;;;;;22.92;8.40;;;2.50;99.90;;;;;;5027689;28;20029;-62
2021/11/26 07:20:30;;;;;;;21.35;7.57;;;2.50;99.90;;;;;;5027271;28;20108;-62
2021/11/26 07:22:59;;;;;;;16.27;7.20;;;2.50;99.90;;;;;;5027368;28;20090;-61
2021/11/26 07:25:26;;;;;;;21.13;7.50;;;2.50;99.90;;;;;;5027272;28;20515;-62
2021/11/26 07:27:52;;;;;;;14.98;7.70;;;2.50;99.90;;;;;;5018816;28;20038;-61
2021/11/26 07:30:18;;;;;;;20.05;8.18;;;2.50;99.90;;;;;;5028903;28;20040;-62
2021/11/26 07:32:44;;;;;;;16.98;7.72;;;2.50;99.90;;;;;;5031173;28;20076;-61
2021/11/26 07:35:10;;;;;;;17.60;7.22;;;2.50;99.90;;;;;;5031400;28;20042;-61
2021/11/26 07:37:36;;;;;;;21.15;8.40;;;2.50;99.90;;;;;;5032288;28;20077;-62
2021/11/26 07:40:04;;;;;;;17.95;7.20;;;2.40;99.90;;;;;;5031124;28;20437;-61
2021/11/26 07:42:30;;;;;;;23.98;11.88;;;2.50;99.90;;;;;;5030305;28;20041;-62
2021/11/26 07:44:55;;;;;;;47.90;21.60;;;2.50;99.90;;;;;;5030138;28;20056;-59
2021/11/26 07:47:21;;;;;;;19.75;9.30;;;2.60;99.90;;;;;;5030120;28;20651;-61
2021/11/26 07:49:51;;;;;;;16.27;6.75;;;2.60;99.90;;;;;;5030144;28;20048;-60
2021/11/26 07:52:17;;;;;;;16.77;8.73;;;2.60;99.90;;;;;;5030968;28;20044;-62
2021/11/26 07:54:43;;;;;;;24.42;7.07;;;2.60;99.90;;;;;;5029265;28;20037;-62
2021/11/26 07:57:09;;;;;;;22.30;7.57;;;2.50;99.90;;;;;;5031511;28;20072;-60
2021/11/26 07:59:35;;;;;;;13.18;6.03;;;2.50;99.90;;;;;;5030368;28;20048;-61
2021/11/26 08:02:01;;;;;;;16.27;6.63;;;2.50;99.90;;;;;;5030118;28;20639;-60
2021/11/26 08:04:27;;;;;;;13.07;5.75;;;2.50;99.90;;;;;;5029035;28;20041;-59
2021/11/26 08:06:52;;;;;;;11.18;5.38;;;2.50;99.90;;;;;;5031200;28;20034;-59
2021/11/26 08:09:19;;;;;;;9.05;5.20;;;2.50;99.90;;;;;;5033436;28;20043;-60
2021/11/26 08:11:46;;;;;;;14.60;5.63;;;2.40;99.90;;;;;;5030261;28;20041;-59
2021/11/26 08:14:12;;;;;;;18.75;5.85;;;2.40;99.90;;;;;;5029153;28;20117;-60
2021/11/26 08:16:38;;;;;;;13.05;5.70;;;2.30;99.90;;;;;;5030784;28;20132;-60
2021/11/26 08:19:06;;;;;;;10.05;4.97;;;2.30;99.90;;;;;;5030987;28;20069;-60
2021/11/26 08:21:32;;;;;;;9.25;4.63;;;2.30;99.90;;;;;;5030755;28;20039;-60
2021/11/26 08:24:00;;;;;;;9.18;4.55;;;2.40;99.90;;;;;;5030370;28;20112;-61
2021/11/26 08:26:26;;;;;;;9.18;4.35;;;2.40;99.90;;;;;;5032052;28;20060;-61
2021/11/26 08:28:52;;;;;;;13.02;5.43;;;2.40;99.90;;;;;;5030521;28;20505;-61
2021/11/26 08:31:18;;;;;;;7.43;4.53;;;2.40;99.90;;;;;;5030256;28;20076;-61
2021/11/26 08:33:43;;;;;;;6.95;3.72;;;2.40;99.90;;;;;;5030439;28;20625;-57
2021/11/26 08:36:09;;;;;;;7.53;3.53;;;2.40;99.90;;;;;;5030608;28;20481;-59
2021/11/26 08:38:35;;;;;;;4.72;2.83;;;2.40;99.90;;;;;;5029782;28;20037;-59
2021/11/26 08:41:00;;;;;;;5.28;3.10;;;2.50;99.90;;;;;;5029181;28;20041;-61
2021/11/26 08:43:26;;;;;;;4.90;2.58;;;2.50;99.90;;;;;;5030938;28;20128;-58
2021/11/26 08:45:52;;;;;;;5.95;2.55;;;2.50;99.90;;;;;;5030389;28;20092;-60
2021/11/26 08:48:18;;;;;;;3.13;2.00;;;2.50;99.90;;;;;;5031049;28;20100;-62
2021/11/26 08:50:44;;;;;;;5.07;2.28;;;2.50;99.90;;;;;;5027962;28;20038;-59
2021/11/26 08:53:11;;;;;;;2.58;1.60;;;2.50;99.90;;;;;;5030345;28;20039;-62
2021/11/26 08:55:39;;;;;;;3.90;1.92;;;2.50;99.90;;;;;;5031521;28;20041;-61
2021/11/26 08:58:07;;;;;;;3.28;1.77;;;2.40;99.90;;;;;;5031204;28;20148;-56
2021/11/26 09:00:35;;;;;;;2.92;1.70;;;2.40;99.90;;;;;;5028148;28;20053;-61
2021/11/26 09:03:03;;;;;;;2.83;1.63;;;2.40;99.90;;;;;;5029779;28;20102;-60
2021/11/26 09:05:29;;;;;;;2.58;1.40;;;2.40;99.90;;;;;;5027983;28;20390;-60
2021/11/26 09:08:01;;;;;;;2.97;1.42;;;2.40;99.90;;;;;;5029122;28;20089;-60
2021/11/26 09:10:47;;;;;;;3.60;1.45;;;2.30;99.90;;;;;;5028838;28;20863;-60
2021/11/26 09:13:15;;;;;;;1.73;1.05;;;2.40;99.90;;;;;;5024246;28;20044;-56
2021/11/26 09:15:40;;;;;;;1.67;1.00;;;2.40;99.90;;;;;;5030701;28;20037;-60
2021/11/26 09:18:08;;;;;;;2.42;1.00;;;2.50;99.90;;;;;;5030065;28;20230;-61
2021/11/26 09:20:35;;;;;;;6.20;3.15;;;2.60;99.90;;;;;;5030908;28;20029;-61
2021/11/26 09:23:01;;;;;;;4.43;1.50;;;2.60;99.90;;;;;;5029079;28;20044;-60
2021/11/26 09:25:27;;;;;;;1.25;1.00;;;2.70;99.90;;;;;;5029912;28;20567;-61
2021/11/26 09:27:53;;;;;;;2.75;1.40;;;2.60;99.90;;;;;;5030991;28;20505;-60
2021/11/26 09:30:21;;;;;;;1.27;0.82;;;2.60;99.90;;;;;;5027023;28;20060;-58
2021/11/26 09:32:47;;;;;;;5.93;2.88;;;2.60;99.90;;;;;;5031153;28;20043;-59
2021/11/26 09:35:13;;;;;;;2.60;1.52;;;2.60;99.90;;;;;;5036866;28;20037;-61
2021/11/26 09:37:40;;;;;;;3.42;1.52;;;2.70;99.90;;;;;;5035789;28;20045;-59
2021/11/26 09:40:09;;;;;;;1.60;0.88;;;2.70;99.90;;;;;;5028831;28;20128;-60
2021/11/26 09:42:37;;;;;;;0.80;0.52;;;2.60;99.90;;;;;;5032270;28;20063;-61
2021/11/26 09:45:05;;;;;;;0.65;0.47;;;2.60;99.90;;;;;;5035550;28;20037;-59
2021/11/26 09:47:30;;;;;;;1.20;0.77;;;2.60;99.90;;;;;;5030026;28;20501;-56
2021/11/26 09:49:56;;;;;;;1.13;0.60;;;2.50;99.90;;;;;;5025962;28;20030;-61
2021/11/26 09:52:22;;;;;;;1.15;0.60;;;2.50;99.90;;;;;;5027018;28;20046;-61
2021/11/26 09:54:48;;;;;;;0.90;0.70;;;2.50;99.90;;;;;;5026662;28;20053;-60
2021/11/26 09:57:15;;;;;;;0.98;0.65;;;2.50;99.90;;;;;;5029268;28;20060;-60
2021/11/26 09:59:42;;;;;;;0.98;0.60;;;2.50;99.90;;;;;;5031225;28;20137;-60
2021/11/26 10:02:11;;;;;;;2.00;0.70;;;2.40;99.90;;;;;;5026185;28;20033;-60
2021/11/26 10:04:36;;;;;;;1.05;0.60;;;2.50;99.90;;;;;;5029640;28;20045;-60
2021/11/26 10:07:03;;;;;;;0.65;0.57;;;2.50;99.90;;;;;;5029371;28;20037;-61
2021/11/26 10:09:33;;;;;;;2.60;0.80;;;2.60;99.90;;;;;;5028562;28;20072;-58
2021/11/26 10:12:11;;;;;;;0.90;0.70;;;2.60;99.90;;;;;;5025541;28;20068;-59
2021/11/26 10:14:47;;;;;;;1.27;0.60;;;2.60;99.90;;;;;;5032868;28;20094;-61
2021/11/26 10:17:16;;;;;;;1.45;0.70;;;2.60;99.90;;;;;;5030593;28;20433;-61
2021/11/26 10:19:46;;;;;;;1.10;0.70;;;2.70;99.90;;;;;;5028027;28;20124;-59
2021/11/26 10:22:44;;;;;;;1.65;0.80;;;2.70;99.90;;;;;;5028752;28;20112;-60
2021/11/26 10:25:16;;;;;;;3.55;0.82;;;2.60;99.90;;;;;;5021950;28;20041;-61
2021/11/26 10:27:55;;;;;;;2.95;0.90;;;2.60;99.90;;;;;;5030334;28;20057;-60
2021/11/26 10:30:28;;;;;;;3.72;0.90;;;2.60;99.90;;;;;;5027521;28;20036;-59
2021/11/26 10:32:59;;;;;;;3.47;2.38;;;2.50;99.90;;;;;;5025533;28;20041;-61
2021/11/26 10:35:32;;;;;;;1.73;1.13;;;2.50;99.90;;;;;;5026950;28;20046;-61
2021/11/26 10:38:07;;;;;;;3.15;1.58;;;2.50;99.90;;;;;;5021970;28;20092;-61
2021/11/26 10:40:35;;;;;;;4.90;2.45;;;2.40;99.90;;;;;;5028194;28;20041;-57
2021/11/26 10:43:04;;;;;;;14.90;5.90;;;2.40;99.90;;;;;;5026697;28;20050;-63
2021/11/26 10:59:14;;;;;;;0.85;0.65;;;2.30;99.90;;;;;;5020148;28;20045;-59
2021/11/26 11:01:46;;;;;;;1.58;0.55;;;2.30;99.90;;;;;;5023448;28;20094;-59
2021/11/26 11:04:17;;;;;;;1.25;0.60;;;2.30;99.90;;;;;;5023517;28;20565;-60
2021/11/26 11:06:44;;;;;;;1.17;0.55;;;2.40;99.90;;;;;;5025408;28;20490;-59
2021/11/26 11:09:11;;;;;;;1.77;0.45;;;2.40;99.90;;;;;;5024938;28;20029;-60
2021/11/26 11:11:50;;;;;;;0.63;0.30;;;2.50;99.90;;;;;;5025166;28;20094;-56
2021/11/26 11:14:18;;;;;;;0.45;0.43;;;2.50;99.90;;;;;;5028939;28;20040;-58
2021/11/26 11:16:50;;;;;;;3.25;1.13;;;2.50;99.90;;;;;;5028400;28;20037;-60
2021/11/26 11:19:16;;;;;;;0.82;0.40;;;2.60;99.90;;;;;;5027653;28;20060;-61
2021/11/26 11:21:44;;;;;;;1.20;0.60;;;2.60;99.90;;;;;;5026264;28;20037;-58
2021/11/26 11:24:11;;;;;;;1.08;0.75;;;2.50;99.90;;;;;;5028708;28;20033;-59
2021/11/26 11:26:40;;;;;;;4.43;0.93;;;2.50;99.90;;;;;;5029113;28;20107;-61
2021/11/26 11:29:06;;;;;;;1.40;0.90;;;2.50;99.90;;;;;;5027262;28;20041;-60
2021/11/26 11:31:32;;;;;;;2.35;0.98;;;2.50;99.90;;;;;;5027737;28;20038;-58
2021/11/26 11:33:59;;;;;;;8.90;1.35;;;2.50;99.90;;;;;;5028091;28;20095;-59
2021/11/26 11:36:25;;;;;;;2.65;1.10;;;2.60;99.90;;;;;;5029115;28;20049;-57
2021/11/26 11:39:00;;;;;;;3.25;1.58;;;2.60;99.90;;;;;;5029755;28;20147;-59
2021/11/26 11:41:26;;;;;;;2.40;1.60;;;2.70;99.90;;;;;;5028888;28;20037;-59
2021/11/26 11:43:52;;;;;;;4.90;1.80;;;2.70;99.90;;;;;;5028443;28;20045;-58
2021/11/26 11:46:18;;;;;;;6.53;1.85;;;2.70;99.90;;;;;;5029260;28;20417;-59
2021/11/26 11:48:52;;;;;;;6.20;1.33;;;2.70;99.90;;;;;;5029030;28;20033;-60
2021/11/26 11:51:26;;;;;;;5.20;3.33;;;2.70;99.90;;;;;;5029782;28;20042;-61
2021/11/26 11:54:11;;;;;;;8.05;4.05;;;2.70;99.90;;;;;;5028724;28;20041;-61
2021/11/26 11:56:50;;;;;;;25.10;10.63;;;2.60;99.90;;;;;;5028031;28;20045;-62
2021/11/26 11:59:33;;;;;;;13.15;5.53;;;2.60;99.90;;;;;;5027501;28;20056;-59
2021/11/26 12:02:00;;;;;;;4.45;2.42;;;2.70;99.90;;;;;;5025251;28;20056;-60
2021/11/26 12:04:36;;;;;;;8.48;3.67;;;2.70;99.90;;;;;;5029229;28;20050;-57
2021/11/26 12:07:02;;;;;;;7.05;2.63;;;2.70;99.90;;;;;;5026494;28;20802;-60
2021/11/26 12:09:30;;;;;;;5.78;2.72;;;2.70;99.90;;;;;;5027748;28;20160;-56
2021/11/26 12:12:14;;;;;;;8.88;2.65;;;2.70;99.90;;;;;;5028385;28;20049;-60
2021/11/26 12:14:51;;;;;;;7.22;2.90;;;2.70;99.90;;;;;;5030912;28;20072;-58
2021/11/26 12:17:53;;;;;;;6.22;2.58;;;2.70;99.90;;;;;;5030697;28;20098;-61
2021/11/26 12:20:20;;;;;;;5.03;2.83;;;2.60;99.90;;;;;;5031338;28;20045;-57
2021/11/26 12:22:53;;;;;;;7.22;2.83;;;2.50;99.90;;;;;;5032977;28;20048;-61
2021/11/26 12:25:28;;;;;;;4.60;2.83;;;2.50;99.90;;;;;;5032369;28;20041;-59
2021/11/26 12:27:59;;;;;;;5.67;2.17;;;2.50;99.90;;;;;;5030021;28;20077;-56
2021/11/26 12:30:25;;;;;;;6.68;2.53;;;2.50;99.90;;;;;;5030680;28;20045;-61
2021/11/26 12:32:51;;;;;;;5.93;2.20;;;2.40;99.90;;;;;;5032324;28;20107;-60
2021/11/26 12:35:17;;;;;;;9.05;2.75;;;2.40;99.90;;;;;;5031338;28;20037;-56
2021/11/26 12:37:45;;;;;;;6.88;2.90;;;2.50;99.90;;;;;;5031151;28;20041;-61
2021/11/26 12:40:16;;;;;;;6.45;2.47;;;2.50;99.90;;;;;;5030216;28;20484;-59
2021/11/26 12:42:42;;;;;;;6.45;2.25;;;2.50;99.90;;;;;;5031983;28;20033;-56
2021/11/26 12:45:11;;;;;;;13.98;2.30;;;2.50;99.90;;;;;;5031536;28;20045;-60
2021/11/26 12:49:04;;;;;;;10.20;2.50;;;2.50;99.90;;;;;;5032065;28;20049;-64
2021/11/26 12:53:27;;;;;;;8.13;3.13;;;2.50;99.90;;;;;;5031770;28;20571;-62
2021/11/26 12:56:04;;;;;;;6.57;2.78;;;2.60;99.90;;;;;;5029366;28;20063;-62
2021/11/26 12:58:32;;;;;;;15.27;3.70;;;2.60;99.90;;;;;;5031511;28;20126;-62
2021/11/26 13:01:00;;;;;;;6.30;3.33;;;2.60;99.90;;;;;;5029251;28;20112;-61
2021/11/26 13:03:27;;;;;;;11.88;3.33;;;2.60;99.90;;;;;;5030670;28;20037;-60
2021/11/26 13:06:00;;;;;;;13.95;3.92;;;2.60;99.90;;;;;;5031796;28;20038;-61